Time;durP1;ratioP1;P1;durP2;ratioP2;P2;SDS_P1;SDS_P2;PMS_P1;PMS_P2;Temp;Humidity;BMP_temperature;BMP_pressure;BME280_temperature;BME280_humidity;BME280_pressure;Samples;Min_cycle;Max_cycle;Signal;HPM_P1;HPM_P2
2021/12/07 00:01:26;;;;;;;0.10;0.10;;;2.60;99.90;;;;;;5086081;28;20044;-79
2021/12/07 00:03:54;;;;;;;0.10;0.10;;;2.50;99.90;;;;;;5052931;28;20051;-81
2021/12/07 00:06:21;;;;;;;0.10;0.10;;;3.30;99.90;;;;;;5069527;28;20464;-79
2021/12/07 00:08:51;;;;;;;0.10;0.10;;;2.50;99.90;;;;;;5085754;28;20052;-81
2021/12/07 00:11:18;;;;;;;0.15;0.15;;;2.50;99.90;;;;;;5069841;28;20055;-82
2021/12/07 00:13:45;;;;;;;0.20;0.20;;;2.40;99.90;;;;;;5085555;28;20044;-81
2021/12/07 00:16:13;;;;;;;0.17;0.17;;;2.40;99.90;;;;;;5085899;28;20076;-79
2021/12/07 00:18:41;;;;;;;0.10;0.10;;;2.40;99.90;;;;;;5053136;28;20082;-81
2021/12/07 00:21:08;;;;;;;0.15;0.15;;;2.40;99.90;;;;;;5069092;28;20079;-79
2021/12/07 00:23:35;;;;;;;0.20;0.20;;;2.40;99.90;;;;;;5085702;28;20074;-81
2021/12/07 00:26:03;;;;;;;0.10;0.10;;;2.40;99.90;;;;;;5069126;28;20049;-78
2021/12/07 00:28:30;;;;;;;0.10;0.10;;;2.30;99.90;;;;;;5069006;28;20453;-81
2021/12/07 00:31:07;;;;;;;0.20;0.20;;;2.30;99.90;;;;;;5052244;28;20131;-79
2021/12/07 00:33:42;;;;;;;0.15;0.15;;;2.30;99.90;;;;;;5054087;28;20037;-80
2021/12/07 00:36:09;;;;;;;0.30;0.30;;;2.90;99.90;;;;;;5053662;28;20513;-78
2021/12/07 00:38:36;;;;;;;0.10;0.10;;;2.80;99.90;;;;;;5068994;28;20076;-80
2021/12/07 00:41:03;;;;;;;0.20;0.20;;;2.10;99.90;;;;;;5085335;28;20049;-80
2021/12/07 00:43:32;;;;;;;0.13;0.13;;;2.10;99.90;;;;;;5069089;28;20123;-79
2021/12/07 00:46:01;;;;;;;0.13;0.13;;;2.20;99.90;;;;;;5068950;28;20466;-79
2021/12/07 00:48:29;;;;;;;0.20;0.20;;;2.10;99.90;;;;;;5052741;28;20498;-80
2021/12/07 00:50:57;;;;;;;0.15;0.15;;;2.60;99.90;;;;;;5085218;28;20045;-79
2021/12/07 00:53:26;;;;;;;0.20;0.20;;;2.50;99.90;;;;;;5085739;28;20116;-81
2021/12/07 00:55:56;;;;;;;0.20;0.20;;;2.00;99.90;;;;;;5068903;28;20466;-81
2021/12/07 00:58:24;;;;;;;0.20;0.20;;;1.90;99.90;;;;;;5085607;28;20044;-81
2021/12/07 01:00:58;;;;;;;0.10;0.10;;;1.90;99.90;;;;;;5085229;28;20106;-80
2021/12/07 01:03:26;;;;;;;0.20;0.20;;;1.80;99.90;;;;;;5085388;28;20505;-78
2021/12/07 01:06:04;;;;;;;0.20;0.20;;;2.10;99.90;;;;;;5085075;28;20118;-78
2021/12/07 01:25:08;;;;;;;0.10;0.10;;;1.60;99.90;;;;;;5089055;28;20420;-82
2021/12/07 01:27:35;;;;;;;0.20;0.20;;;1.70;99.90;;;;;;5056170;28;20512;-79
2021/12/07 01:30:18;;;;;;;0.20;0.20;;;2.10;99.90;;;;;;5088541;28;20132;-79
2021/12/07 01:33:02;;;;;;;0.20;0.20;;;1.60;99.90;;;;;;5089046;28;20115;-79
2021/12/07 01:40:55;;;;;;;0.10;0.10;;;1.90;99.90;;;;;;5089134;28;20048;-81
2021/12/07 01:57:52;;;;;;;0.17;0.17;;;1.50;99.90;;;;;;5072069;28;20064;-79
2021/12/07 01:59:53;;;;;;;0.20;0.20;;;1.40;99.90;;;;;;5074660;28;20098;-78
2021/12/07 02:02:24;;;;;;;0.30;0.30;;;1.60;99.90;;;;;;5088399;28;20048;-81
2021/12/07 02:04:51;;;;;;;0.10;0.10;;;2.00;99.90;;;;;;5056281;28;20483;-79
2021/12/07 02:07:18;;;;;;;0.20;0.20;;;1.40;99.90;;;;;;5055018;28;20186;-81
2021/12/07 02:09:50;;;;;;;0.10;0.10;;;1.60;99.90;;;;;;5071905;28;20410;-78
2021/12/07 02:12:17;;;;;;;0.10;0.10;;;1.30;99.90;;;;;;5072507;28;20032;-79
2021/12/07 02:14:44;;;;;;;0.20;0.20;;;1.30;99.90;;;;;;5055438;28;20047;-78
2021/12/07 02:17:16;;;;;;;0.15;0.15;;;1.30;99.90;;;;;;5054810;28;20040;-78
2021/12/07 02:19:43;;;;;;;0.20;0.20;;;1.20;99.90;;;;;;5087012;28;20037;-80
2021/12/07 02:22:10;;;;;;;0.20;0.20;;;1.20;99.90;;;;;;5087904;28;20041;-81
2021/12/07 02:24:38;;;;;;;0.15;0.15;;;1.10;99.90;;;;;;5054999;28;20825;-81
2021/12/07 02:27:05;;;;;;;0.10;0.10;;;1.10;99.90;;;;;;5087749;28;20045;-79
2021/12/07 02:29:32;;;;;;;0.10;0.10;;;1.10;99.90;;;;;;5087676;28;20436;-81
2021/12/07 02:32:00;;;;;;;0.20;0.20;;;1.00;99.90;;;;;;5054501;28;20049;-78
2021/12/07 02:34:27;;;;;;;0.20;0.20;;;1.40;99.90;;;;;;5094453;28;20645;-79
2021/12/07 02:36:55;;;;;;;0.20;0.20;;;1.00;99.90;;;;;;5060383;28;20119;-81
2021/12/07 02:39:30;;;;;;;0.20;0.20;;;1.00;99.90;;;;;;5095280;28;20113;-81
2021/12/07 02:41:57;;;;;;;0.20;0.20;;;0.90;99.90;;;;;;5090893;28;20037;-79
2021/12/07 02:44:27;;;;;;;0.40;0.40;;;1.30;99.90;;;;;;5074042;28;20539;-78
2021/12/07 02:46:53;;;;;;;0.20;0.20;;;1.40;99.90;;;;;;5091009;28;20087;-81
2021/12/07 02:49:21;;;;;;;0.20;0.20;;;0.90;99.90;;;;;;5074504;28;20087;-81
2021/12/07 02:51:48;;;;;;;0.20;0.20;;;0.90;99.90;;;;;;5074360;28;20113;-81
2021/12/07 02:54:15;;;;;;;0.20;0.20;;;0.90;99.90;;;;;;5107073;28;20047;-81
2021/12/07 02:56:42;;;;;;;0.20;0.20;;;0.90;99.90;;;;;;5074469;28;20457;-81
2021/12/07 02:59:10;;;;;;;0.20;0.20;;;0.90;99.90;;;;;;5073931;28;20094;-81
2021/12/07 03:01:43;;;;;;;0.20;0.20;;;0.90;99.90;;;;;;5090765;28;20503;-79
2021/12/07 03:04:23;;;;;;;0.20;0.20;;;0.90;99.90;;;;;;5107005;28;20036;-78
2021/12/07 03:26:11;;;;;;;0.30;0.30;;;1.20;99.90;;;;;;5106411;28;20041;-79
2021/12/07 03:28:41;;;;;;;0.22;0.22;;;0.90;99.90;;;;;;5107037;28;20040;-81
2021/12/07 03:31:09;;;;;;;0.20;0.20;;;0.90;99.90;;;;;;5090398;28;20045;-80
2021/12/07 03:33:36;;;;;;;0.28;0.28;;;1.00;99.90;;;;;;5090154;28;20052;-79
2021/12/07 03:36:05;;;;;;;0.13;0.13;;;1.00;99.90;;;;;;5090155;28;20429;-78
2021/12/07 03:38:32;;;;;;;0.15;0.15;;;0.90;99.90;;;;;;5089891;28;20127;-81
2021/12/07 03:40:59;;;;;;;0.20;0.20;;;0.90;99.90;;;;;;5106712;28;20631;-81
2021/12/07 03:43:26;;;;;;;0.25;0.25;;;0.90;99.90;;;;;;5089847;28;20047;-81
2021/12/07 03:45:53;;;;;;;0.30;0.30;;;0.90;99.90;;;;;;5106460;28;20143;-79
2021/12/07 03:48:20;;;;;;;0.20;0.20;;;0.90;99.90;;;;;;5089704;28;20471;-80
2021/12/07 03:50:47;;;;;;;0.20;0.20;;;1.30;99.90;;;;;;5089925;28;20036;-78
2021/12/07 03:53:14;;;;;;;0.20;0.20;;;0.80;99.90;;;;;;5106177;28;20060;-79
2021/12/07 03:55:41;;;;;;;0.20;0.20;;;0.90;99.90;;;;;;5073436;28;20047;-79
2021/12/07 03:58:08;;;;;;;0.20;0.20;;;1.50;99.90;;;;;;5089831;28;20032;-81
2021/12/07 04:00:39;;;;;;;0.30;0.30;;;0.90;99.90;;;;;;5073042;28;20566;-80
2021/12/07 04:03:09;;;;;;;0.20;0.20;;;0.90;99.90;;;;;;5106455;28;20045;-80
2021/12/07 04:05:47;;;;;;;0.20;0.20;;;1.20;99.90;;;;;;5106571;28;20044;-79
2021/12/07 04:08:20;;;;;;;0.20;0.20;;;1.50;99.90;;;;;;5106250;28;20493;-79
2021/12/07 04:10:48;;;;;;;0.20;0.20;;;1.00;99.90;;;;;;5089675;28;20397;-81
2021/12/07 04:13:15;;;;;;;0.20;0.20;;;1.00;99.90;;;;;;5072823;28;20493;-79
2021/12/07 04:15:42;;;;;;;0.20;0.20;;;1.00;99.90;;;;;;5073030;28;20047;-81
2021/12/07 04:18:09;;;;;;;0.20;0.20;;;1.10;99.90;;;;;;5072814;28;20127;-79
2021/12/07 04:20:36;;;;;;;0.20;0.20;;;1.00;99.90;;;;;;5072620;28;20127;-78
2021/12/07 04:23:05;;;;;;;0.20;0.20;;;1.00;99.90;;;;;;5072793;28;20063;-78
2021/12/07 04:25:32;;;;;;;0.25;0.25;;;1.20;99.90;;;;;;5089173;28;20036;-79
2021/12/07 04:27:59;;;;;;;0.20;0.20;;;1.80;99.90;;;;;;5073177;28;20052;-81
2021/12/07 04:30:35;;;;;;;0.20;0.20;;;1.10;99.90;;;;;;5072063;28;20083;-81
2021/12/07 04:33:02;;;;;;;;;;;1.10;99.90;;;;;;5089918;28;20086;-79
2021/12/07 04:35:29;;;;;;;0.28;0.28;;;1.90;99.90;;;;;;5089156;28;20401;-81
2021/12/07 04:37:57;;;;;;;0.20;0.20;;;1.10;99.90;;;;;;5072706;28;20076;-81
2021/12/07 04:40:27;;;;;;;0.20;0.20;;;1.40;99.90;;;;;;5072439;28;20562;-80
2021/12/07 04:42:54;;;;;;;0.20;0.20;;;1.10;99.90;;;;;;5107838;28;20052;-81
2021/12/07 04:59:05;;;;;;;0.20;0.20;;;1.20;99.90;;;;;;5096237;28;20037;-81
2021/12/07 05:01:33;;;;;;;0.20;0.20;;;1.10;99.90;;;;;;5109649;28;20047;-80
2021/12/07 05:04:05;;;;;;;0.20;0.20;;;1.50;99.90;;;;;;5077217;28;20036;-80
2021/12/07 05:06:34;;;;;;;0.20;0.20;;;1.10;99.90;;;;;;5094179;28;20055;-79
2021/12/07 05:09:21;;;;;;;0.20;0.20;;;1.10;99.90;;;;;;5076938;28;20086;-78
2021/12/07 05:12:03;;;;;;;0.20;0.20;;;1.10;99.90;;;;;;5095748;28;20052;-78
2021/12/07 05:14:33;;;;;;;0.30;0.30;;;1.00;99.90;;;;;;5078110;28;20055;-79
2021/12/07 05:38:31;;;;;;;0.30;0.30;;;0.80;99.90;;;;;;5108877;28;20040;-81
2021/12/07 05:40:59;;;;;;;0.20;0.20;;;0.80;99.90;;;;;;5075940;28;20408;-78
2021/12/07 05:43:26;;;;;;;0.30;0.30;;;0.80;99.90;;;;;;5092238;28;20094;-79
2021/12/07 05:45:53;;;;;;;0.22;0.22;;;0.80;99.90;;;;;;5075943;28;20455;-80
2021/12/07 05:48:20;;;;;;;0.20;0.20;;;0.70;99.90;;;;;;5075714;28;20127;-80
2021/12/07 05:50:47;;;;;;;0.20;0.20;;;0.80;99.90;;;;;;5092065;28;20044;-78
2021/12/07 05:53:14;;;;;;;0.20;0.20;;;0.70;99.90;;;;;;5108772;28;20048;-78
2021/12/07 05:55:41;;;;;;;0.10;0.10;;;1.40;99.90;;;;;;5091928;28;20119;-78
2021/12/07 05:58:08;;;;;;;0.20;0.20;;;1.20;99.90;;;;;;5075632;28;20047;-79
2021/12/07 06:00:37;;;;;;;0.20;0.20;;;0.70;99.90;;;;;;5092175;28;20119;-81
2021/12/07 06:03:06;;;;;;;0.20;0.20;;;0.70;99.90;;;;;;5092791;28;20048;-80
2021/12/07 06:05:34;;;;;;;0.30;0.30;;;0.70;99.90;;;;;;5108535;28;20123;-78
2021/12/07 06:08:01;;;;;;;0.20;0.20;;;0.70;99.90;;;;;;5108304;28;20533;-79
2021/12/07 06:10:28;;;;;;;0.20;0.20;;;0.70;99.90;;;;;;5091650;28;20048;-78
2021/12/07 06:12:55;;;;;;;0.20;0.20;;;0.60;99.90;;;;;;5109452;28;20083;-78
2021/12/07 06:15:23;;;;;;;0.25;0.25;;;0.70;99.90;;;;;;5108328;28;20783;-81
2021/12/07 06:17:51;;;;;;;0.20;0.20;;;0.90;99.90;;;;;;5091115;28;20094;-80
2021/12/07 06:20:18;;;;;;;0.20;0.20;;;0.60;99.90;;;;;;5091489;28;20117;-80
2021/12/07 06:22:45;;;;;;;0.20;0.20;;;0.60;99.90;;;;;;5090955;28;20040;-78
2021/12/07 06:25:12;;;;;;;0.20;0.20;;;0.50;99.90;;;;;;5074399;28;20036;-78
2021/12/07 06:27:40;;;;;;;0.20;0.20;;;1.00;99.90;;;;;;5074016;28;20043;-80
2021/12/07 06:30:09;;;;;;;0.30;0.30;;;0.60;99.90;;;;;;5107960;28;20033;-78
2021/12/07 06:32:37;;;;;;;0.20;0.20;;;0.50;99.90;;;;;;5090646;28;20533;-79
2021/12/07 06:35:05;;;;;;;0.20;0.20;;;0.60;99.90;;;;;;5090766;28;20074;-79
2021/12/07 06:37:31;;;;;;;0.28;0.28;;;0.60;99.90;;;;;;5090388;28;20384;-78
2021/12/07 06:39:58;;;;;;;0.20;0.20;;;1.00;99.90;;;;;;5060649;28;20044;-81
2021/12/07 06:42:25;;;;;;;0.20;0.20;;;1.40;99.90;;;;;;5060510;28;20450;-78
2021/12/07 06:44:52;;;;;;;0.30;0.30;;;0.60;99.90;;;;;;5070969;28;20858;-81
2021/12/07 06:47:19;;;;;;;0.30;0.30;;;0.60;99.90;;;;;;5071880;28;20036;-79
2021/12/07 06:49:45;;;;;;;0.20;0.20;;;0.60;99.90;;;;;;5090506;28;20044;-80
2021/12/07 06:52:12;;;;;;;0.30;0.30;;;0.50;99.90;;;;;;5090715;28;20047;-80
2021/12/07 06:54:39;;;;;;;0.28;0.28;;;0.50;99.90;;;;;;5106800;28;20094;-78
2021/12/07 06:57:06;;;;;;;0.30;0.30;;;0.50;99.90;;;;;;5090685;28;20138;-78
2021/12/07 06:59:32;;;;;;;0.30;0.30;;;0.40;99.90;;;;;;5074140;28;20036;-81
2021/12/07 07:01:59;;;;;;;0.20;0.20;;;0.40;99.90;;;;;;5090089;28;20096;-78
2021/12/07 07:04:26;;;;;;;0.20;0.20;;;0.40;99.90;;;;;;5090490;28;20040;-80
2021/12/07 07:06:52;;;;;;;0.20;0.20;;;1.00;99.90;;;;;;5073192;28;20102;-79
2021/12/07 07:09:19;;;;;;;0.20;0.20;;;0.40;99.90;;;;;;5076266;28;20431;-78
2021/12/07 07:11:46;;;;;;;0.20;0.20;;;0.60;99.90;;;;;;5073289;28;20493;-79
2021/12/07 07:14:15;;;;;;;0.20;0.20;;;0.50;99.90;;;;;;5073567;28;20044;-79
2021/12/07 07:16:42;;;;;;;0.20;0.20;;;0.50;99.90;;;;;;5090288;28;20040;-80
2021/12/07 07:19:09;;;;;;;0.20;0.20;;;1.30;99.90;;;;;;5073715;28;20047;-80
2021/12/07 07:21:36;;;;;;;0.20;0.20;;;0.60;99.90;;;;;;5073616;28;20037;-80
2021/12/07 07:24:03;;;;;;;0.20;0.20;;;0.60;99.90;;;;;;5106398;28;20089;-79
2021/12/07 07:26:30;;;;;;;0.20;0.20;;;0.70;99.90;;;;;;5106552;28;20040;-78
2021/12/07 07:28:56;;;;;;;0.20;0.20;;;1.00;99.90;;;;;;5072655;28;20770;-79
2021/12/07 07:31:24;;;;;;;0.30;0.30;;;0.60;99.90;;;;;;5086591;28;20048;-80
2021/12/07 07:33:53;;;;;;;0.20;0.20;;;0.60;99.90;;;;;;5105563;28;20037;-81
2021/12/07 07:36:20;;;;;;;0.30;0.30;;;0.60;99.90;;;;;;5072888;28;20516;-81
2021/12/07 07:38:47;;;;;;;0.20;0.20;;;0.60;99.90;;;;;;5089670;28;20036;-79
2021/12/07 07:41:14;;;;;;;0.20;0.20;;;0.60;99.90;;;;;;5089419;28;20427;-79
2021/12/07 07:43:40;;;;;;;0.20;0.20;;;0.60;99.90;;;;;;5072444;28;20063;-79
2021/12/07 07:46:07;;;;;;;0.30;0.30;;;0.60;99.90;;;;;;5071080;28;20052;-78
2021/12/07 07:48:34;;;;;;;0.20;0.20;;;0.60;99.90;;;;;;5083277;28;20382;-81
2021/12/07 07:51:01;;;;;;;0.30;0.30;;;0.60;99.90;;;;;;5072364;28;20131;-79
2021/12/07 07:53:28;;;;;;;0.20;0.20;;;0.60;99.90;;;;;;5070128;28;20060;-79
2021/12/07 07:55:55;;;;;;;0.20;0.20;;;1.40;99.90;;;;;;5077683;28;20032;-81
2021/12/07 07:58:22;;;;;;;0.30;0.30;;;1.80;99.90;;;;;;5078493;28;20040;-80
2021/12/07 08:00:49;;;;;;;0.20;0.20;;;1.40;99.90;;;;;;5090020;28;20039;-79
2021/12/07 08:03:16;;;;;;;0.30;0.30;;;0.90;99.90;;;;;;5063215;28;20087;-81
2021/12/07 08:05:43;;;;;;;0.20;0.20;;;0.90;99.90;;;;;;5071947;28;20044;-80
2021/12/07 08:08:10;;;;;;;0.20;0.20;;;1.50;99.90;;;;;;5075642;28;20033;-79
2021/12/07 08:10:37;;;;;;;0.20;0.20;;;1.30;99.90;;;;;;5101615;28;20097;-79
2021/12/07 08:13:06;;;;;;;0.20;0.20;;;1.00;99.90;;;;;;5074732;28;20045;-81
2021/12/07 08:15:38;;;;;;;0.20;0.20;;;1.00;99.90;;;;;;5085613;28;20041;-79
2021/12/07 08:18:06;;;;;;;0.30;0.30;;;1.10;99.90;;;;;;5084383;28;20442;-78
2021/12/07 08:20:33;;;;;;;0.30;0.30;;;1.80;99.90;;;;;;5052553;28;20828;-81
2021/12/07 08:23:04;;;;;;;0.20;0.20;;;1.10;99.90;;;;;;5095625;28;20040;-78
2021/12/07 08:25:33;;;;;;;0.30;0.30;;;1.10;99.90;;;;;;5091259;28;20049;-81
2021/12/07 08:28:00;;;;;;;0.25;0.25;;;1.10;99.90;;;;;;5090785;28;20451;-82
2021/12/07 08:30:27;;;;;;;0.20;0.20;;;1.20;99.90;;;;;;5069179;28;20036;-78
2021/12/07 08:32:54;;;;;;;0.20;0.20;;;1.30;99.90;;;;;;5057524;28;20119;-81
2021/12/07 08:35:22;;;;;;;0.20;0.20;;;1.20;99.90;;;;;;5061115;28;20504;-81
2021/12/07 08:37:50;;;;;;;0.10;0.10;;;2.00;99.90;;;;;;5060495;28;20048;-78
2021/12/07 08:40:23;;;;;;;0.20;0.20;;;1.30;99.90;;;;;;5061178;28;20037;-80
2021/12/07 08:42:51;;;;;;;0.15;0.15;;;1.80;99.90;;;;;;5090688;28;20032;-78
2021/12/07 08:45:20;;;;;;;0.20;0.20;;;2.30;99.90;;;;;;5088096;28;20053;-78
2021/12/07 08:47:48;;;;;;;0.20;0.20;;;1.30;99.90;;;;;;5077079;28;20794;-81
2021/12/07 08:50:24;;;;;;;0.20;0.20;;;1.30;99.90;;;;;;5077037;28;20024;-78
2021/12/07 08:52:53;;;;;;;0.20;0.20;;;1.30;99.90;;;;;;5091377;28;20029;-81
2021/12/07 09:00:53;;;;;;;0.20;0.20;;;1.30;99.90;;;;;;5102875;28;20082;-78
2021/12/07 09:03:21;;;;;;;0.20;0.20;;;1.40;99.90;;;;;;5079637;28;20037;-80
2021/12/07 09:05:48;;;;;;;0.30;0.30;;;1.30;99.90;;;;;;5076785;28;20113;-78
2021/12/07 09:08:15;;;;;;;0.20;0.20;;;1.90;99.90;;;;;;5093593;28;20120;-78
2021/12/07 09:10:42;;;;;;;0.20;0.20;;;2.00;99.90;;;;;;5094506;28;20068;-81
2021/12/07 09:13:09;;;;;;;0.20;0.20;;;1.40;99.90;;;;;;5078749;28;20407;-78
2021/12/07 09:15:37;;;;;;;0.20;0.20;;;1.40;99.90;;;;;;5063605;28;20040;-78
2021/12/07 09:18:04;;;;;;;0.20;0.20;;;2.20;99.90;;;;;;5062875;28;20079;-78
2021/12/07 09:20:31;;;;;;;0.20;0.20;;;1.40;99.90;;;;;;5090623;28;20390;-81
2021/12/07 09:22:58;;;;;;;0.17;0.17;;;1.40;99.90;;;;;;5067753;28;20033;-79
2021/12/07 09:25:25;;;;;;;0.20;0.20;;;1.40;99.90;;;;;;5095828;28;20603;-78
2021/12/07 09:27:52;;;;;;;0.10;0.10;;;2.00;99.90;;;;;;5088178;28;20509;-81
2021/12/07 09:30:19;;;;;;;0.20;0.20;;;1.50;99.90;;;;;;5084356;28;20612;-81
2021/12/07 09:32:47;;;;;;;0.20;0.20;;;1.50;99.90;;;;;;5099572;28;20032;-78
2021/12/07 09:35:15;;;;;;;0.20;0.20;;;1.60;99.90;;;;;;5099445;28;20516;-78
2021/12/07 09:37:42;;;;;;;0.28;0.28;;;1.50;99.90;;;;;;5068612;28;20091;-80
2021/12/07 09:40:15;;;;;;;0.40;0.40;;;1.60;99.90;;;;;;5074108;28;20077;-78
2021/12/07 09:42:42;;;;;;;0.20;0.20;;;1.80;99.90;;;;;;5065248;28;20070;-78
2021/12/07 09:45:12;;;;;;;0.20;0.20;;;2.50;99.90;;;;;;5079017;28;20048;-78
2021/12/07 09:47:39;;;;;;;0.10;0.10;;;1.70;99.90;;;;;;5096950;28;20048;-78
2021/12/07 09:50:10;;;;;;;0.10;0.10;;;1.70;99.90;;;;;;5070463;28;20453;-80
2021/12/07 09:52:37;;;;;;;0.20;0.20;;;1.70;99.90;;;;;;5102852;28;20087;-78
2021/12/07 09:55:05;;;;;;;0.25;0.25;;;1.80;99.90;;;;;;5059735;28;20095;-79
2021/12/07 09:57:32;;;;;;;0.20;0.20;;;1.80;99.90;;;;;;5066652;28;20049;-80
2021/12/07 09:59:59;;;;;;;0.20;0.20;;;1.80;99.90;;;;;;5089908;28;20037;-80
2021/12/07 10:02:26;;;;;;;0.20;0.20;;;1.90;99.90;;;;;;5091118;28;20070;-79
2021/12/07 10:04:52;;;;;;;0.15;0.15;;;1.90;99.90;;;;;;5074155;28;20051;-78
2021/12/07 10:07:19;;;;;;;0.20;0.20;;;2.00;99.90;;;;;;5066535;28;20037;-78
2021/12/07 10:09:47;;;;;;;0.30;0.30;;;2.30;99.90;;;;;;5078930;28;20032;-81
2021/12/07 10:12:22;;;;;;;0.10;0.10;;;2.10;99.90;;;;;;5102853;28;20090;-80
2021/12/07 10:14:49;;;;;;;0.10;0.10;;;2.20;99.90;;;;;;5083622;28;20075;-80
2021/12/07 10:17:23;;;;;;;0.20;0.20;;;2.20;99.90;;;;;;5100007;28;20501;-79
2021/12/07 10:19:50;;;;;;;0.17;0.17;;;3.00;99.90;;;;;;5053954;28;20072;-80
2021/12/07 10:22:21;;;;;;;0.17;0.17;;;2.40;99.90;;;;;;5070346;28;20068;-80
2021/12/07 10:24:50;;;;;;;0.20;0.20;;;2.50;99.90;;;;;;5054550;28;20405;-81
2021/12/07 10:27:36;;;;;;;0.10;0.10;;;2.50;99.90;;;;;;5086240;28;20041;-79
2021/12/07 10:30:09;;;;;;;0.20;0.20;;;2.60;99.90;;;;;;5086509;28;20501;-78
2021/12/07 10:32:40;;;;;;;0.17;0.17;;;2.60;99.90;;;;;;5086546;28;20160;-78
2021/12/07 10:35:30;;;;;;;0.10;0.10;;;2.70;99.90;;;;;;5077389;28;20488;-78
2021/12/07 10:38:16;;;;;;;0.10;0.10;;;2.80;99.90;;;;;;5090243;28;20043;-78
2021/12/07 10:41:04;;;;;;;0.20;0.20;;;2.80;99.90;;;;;;5105875;28;20044;-79
2021/12/07 10:43:46;;;;;;;0.10;0.10;;;2.90;99.90;;;;;;5106488;28;20090;-80
2021/12/07 10:46:33;;;;;;;0.10;0.10;;;3.10;99.90;;;;;;5106084;28;20076;-80
2021/12/07 10:49:19;;;;;;;0.20;0.20;;;3.10;99.90;;;;;;5106103;28;20067;-80
2021/12/07 10:52:04;;;;;;;0.20;0.20;;;3.50;99.90;;;;;;5092792;28;20044;-80
2021/12/07 10:54:41;;;;;;;0.20;0.20;;;3.20;99.90;;;;;;5081975;28;20775;-78
2021/12/07 10:57:13;;;;;;;0.10;0.10;;;3.20;99.90;;;;;;5080629;28;20029;-78
2021/12/07 10:59:56;;;;;;;0.10;0.10;;;3.20;99.90;;;;;;5088979;28;20041;-78
2021/12/07 11:02:25;;;;;;;0.10;0.10;;;3.30;99.90;;;;;;5105670;28;20036;-80
2021/12/07 11:04:52;;;;;;;0.10;0.10;;;3.30;99.90;;;;;;5086878;28;20121;-80
2021/12/07 11:07:25;;;;;;;0.10;0.10;;;3.30;99.90;;;;;;5070653;28;20044;-80
2021/12/07 11:10:20;;;;;;;0.45;0.30;;;3.30;99.90;;;;;;5069319;28;20076;-80
2021/12/07 11:13:08;;;;;;;0.10;0.10;;;3.40;99.90;;;;;;5083152;28;20048;-78
2021/12/07 11:15:49;;;;;;;2.83;0.73;;;3.40;99.90;;;;;;5097073;28;20123;-80
2021/12/07 11:18:20;;;;;;;0.10;0.10;;;3.40;99.90;;;;;;5094474;28;20033;-80
2021/12/07 11:20:47;;;;;;;0.20;0.20;;;3.80;99.90;;;;;;5098195;28;20052;-78
2021/12/07 11:23:17;;;;;;;0.10;0.10;;;3.40;99.90;;;;;;5064257;28;20040;-78
2021/12/07 11:29:39;;;;;;;0.10;0.10;;;3.50;99.90;;;;;;5080775;28;20111;-78
2021/12/07 11:31:50;;;;;;;0.20;0.20;;;3.60;99.90;;;;;;5091805;28;20053;-79
2021/12/07 11:34:31;;;;;;;0.10;0.10;;;3.60;99.90;;;;;;5085263;28;20049;-78
2021/12/07 11:37:08;;;;;;;0.10;0.10;;;3.60;99.90;;;;;;5052680;28;20079;-81
2021/12/07 11:39:54;;;;;;;0.20;0.20;;;4.40;99.90;;;;;;5101978;28;20032;-80
2021/12/07 11:42:27;;;;;;;0.10;0.10;;;3.70;99.90;;;;;;5052440;28;20068;-78
2021/12/07 11:45:00;;;;;;;0.10;0.10;;;3.70;99.90;;;;;;5102065;28;20139;-79
2021/12/07 11:47:31;;;;;;;0.10;0.10;;;3.70;99.90;;;;;;5068945;28;20654;-78
2021/12/07 11:50:08;;;;;;;0.10;0.10;;;3.80;99.90;;;;;;5069103;28;20509;-81
2021/12/07 11:52:35;;;;;;;0.15;0.15;;;3.80;99.90;;;;;;5069317;28;20110;-78
2021/12/07 11:55:04;;;;;;;0.10;0.10;;;3.80;99.90;;;;;;5052404;28;20128;-80
2021/12/07 11:57:31;;;;;;;0.10;0.10;;;3.80;99.90;;;;;;5053071;28;20489;-78
2021/12/07 11:59:58;;;;;;;0.10;0.10;;;3.80;99.90;;;;;;5053044;28;20051;-80
2021/12/07 12:02:24;;;;;;;0.10;0.10;;;3.80;99.90;;;;;;5052166;28;20040;-80
2021/12/07 12:04:51;;;;;;;0.10;0.10;;;4.50;99.90;;;;;;5054270;28;20056;-78
2021/12/07 12:07:21;;;;;;;0.10;0.10;;;3.90;99.90;;;;;;5105808;28;20047;-81
2021/12/07 12:09:51;;;;;;;0.10;0.10;;;3.90;99.90;;;;;;5079457;28;20439;-81
2021/12/07 12:12:53;;;;;;;0.10;0.10;;;4.00;99.90;;;;;;5088157;28;20110;-78
2021/12/07 12:15:25;;;;;;;0.10;0.10;;;4.00;99.90;;;;;;5076989;28;20505;-80
2021/12/07 12:18:25;;;;;;;0.10;0.10;;;4.00;99.90;;;;;;5098954;28;20105;-79
2021/12/07 12:21:39;;;;;;;0.10;0.10;;;4.00;99.90;;;;;;5086629;28;20045;-78
2021/12/07 12:24:28;;;;;;;0.10;0.10;;;4.00;99.90;;;;;;5079598;28;20057;-81
2021/12/07 12:27:10;;;;;;;0.10;0.10;;;4.10;99.90;;;;;;5081625;28;20087;-78
2021/12/07 12:29:40;;;;;;;0.10;0.10;;;4.10;99.90;;;;;;5085767;28;20045;-78
2021/12/07 12:32:08;;;;;;;0.10;0.10;;;4.20;99.90;;;;;;5085255;28;20044;-80
2021/12/07 12:34:38;;;;;;;0.10;0.10;;;4.20;99.90;;;;;;5085519;28;20076;-79
2021/12/07 12:37:16;;;;;;;0.10;0.10;;;4.30;99.90;;;;;;5068721;28;20113;-78
2021/12/07 12:39:50;;;;;;;0.10;0.10;;;4.30;99.90;;;;;;5085492;28;20041;-78
2021/12/07 12:42:27;;;;;;;0.13;0.13;;;4.40;99.90;;;;;;5084928;28;20497;-80
2021/12/07 12:45:22;;;;;;;0.20;0.20;;;4.40;99.90;;;;;;5085766;28;20124;-78
2021/12/07 12:47:59;;;;;;;0.10;0.10;;;4.40;99.90;;;;;;5085275;28;20544;-78
2021/12/07 12:50:33;;;;;;;0.10;0.10;;;4.40;99.90;;;;;;5084915;28;20045;-80
2021/12/07 12:53:05;;;;;;;0.10;0.10;;;4.40;99.90;;;;;;5094333;28;20048;-80
2021/12/07 12:55:53;;;;;;;0.10;0.10;;;4.40;99.90;;;;;;5092759;28;20056;-78
2021/12/07 12:58:30;;;;;;;0.10;0.10;;;4.40;99.90;;;;;;5094478;28;20115;-79
2021/12/07 13:01:02;;;;;;;0.10;0.10;;;4.40;99.90;;;;;;5079235;28;20040;-78
2021/12/07 13:03:42;;;;;;;0.10;0.10;;;4.30;99.90;;;;;;5086973;28;20048;-78
2021/12/07 13:06:16;;;;;;;0.10;0.10;;;4.50;99.90;;;;;;5077912;28;20041;-80
2021/12/07 13:08:56;;;;;;;0.10;0.10;;;4.30;99.90;;;;;;5089071;28;20055;-80
2021/12/07 13:11:42;;;;;;;0.05;0.05;;;5.00;99.90;;;;;;5088841;28;20654;-78
2021/12/07 13:14:23;;;;;;;0.20;0.20;;;4.30;99.90;;;;;;5089104;28;20052;-80
2021/12/07 13:16:59;;;;;;;0.17;0.17;;;4.30;99.90;;;;;;5104979;28;20455;-78
2021/12/07 13:19:28;;;;;;;0.10;0.10;;;4.20;99.90;;;;;;5108647;28;20148;-79
2021/12/07 13:22:08;;;;;;;0.10;0.10;;;4.30;99.90;;;;;;5092445;28;20076;-77
2021/12/07 13:24:41;;;;;;;0.10;0.10;;;4.20;99.90;;;;;;5091969;28;20060;-79
2021/12/07 13:27:15;;;;;;;0.10;0.10;;;4.20;99.90;;;;;;5075265;28;20510;-79
2021/12/07 13:29:51;;;;;;;0.15;0.15;;;4.20;99.90;;;;;;5080115;28;20041;-79
2021/12/07 13:32:18;;;;;;;0.10;0.10;;;4.60;99.90;;;;;;5082104;28;20044;-81
2021/12/07 13:34:58;;;;;;;0.10;0.10;;;4.20;99.90;;;;;;5075393;28;20039;-81
2021/12/07 13:37:46;;;;;;;0.10;0.10;;;4.20;99.90;;;;;;5091447;28;20066;-78
2021/12/07 13:40:19;;;;;;;0.10;0.10;;;4.20;99.90;;;;;;5086880;28;20035;-78
2021/12/07 13:42:48;;;;;;;0.10;0.10;;;4.20;99.90;;;;;;5088189;28;20033;-84
2021/12/07 13:45:17;;;;;;;0.10;0.10;;;4.20;99.90;;;;;;5053958;28;20137;-78
2021/12/07 13:47:46;;;;;;;0.10;0.10;;;4.20;99.90;;;;;;5071302;28;20056;-77
2021/12/07 13:50:17;;;;;;;0.10;0.10;;;4.20;99.90;;;;;;5087191;28;20045;-78
2021/12/07 13:52:50;;;;;;;0.10;0.10;;;4.20;99.90;;;;;;5093507;28;20174;-80
2021/12/07 13:55:23;;;;;;;0.10;0.10;;;4.20;99.90;;;;;;5087443;28;20600;-80
2021/12/07 13:57:52;;;;;;;0.10;0.10;;;4.30;99.90;;;;;;5093759;28;20079;-80
2021/12/07 14:00:30;;;;;;;0.10;0.10;;;4.10;99.90;;;;;;5087112;28;20167;-80
2021/12/07 14:03:03;;;;;;;0.10;0.10;;;4.40;99.90;;;;;;5088250;28;20044;-80
2021/12/07 14:05:36;;;;;;;0.20;0.20;;;4.20;99.90;;;;;;5087393;28;20037;-80
2021/12/07 14:08:06;;;;;;;0.10;0.10;;;4.00;99.90;;;;;;5087486;28;20040;-80
2021/12/07 14:10:41;;;;;;;0.10;0.10;;;4.00;99.90;;;;;;5087266;28;20033;-79
2021/12/07 14:13:09;;;;;;;0.10;0.10;;;4.00;99.90;;;;;;5087531;28;20425;-79
2021/12/07 14:15:39;;;;;;;0.10;0.10;;;4.30;99.90;;;;;;5052849;28;20041;-79
2021/12/07 14:18:12;;;;;;;0.10;0.10;;;4.00;99.90;;;;;;5087355;28;20077;-80
2021/12/07 14:20:48;;;;;;;0.10;0.10;;;3.80;99.90;;;;;;5086815;28;20500;-80
2021/12/07 14:23:22;;;;;;;0.10;0.10;;;3.90;99.90;;;;;;5086985;28;20512;-80
2021/12/07 14:26:16;;;;;;;0.10;0.10;;;4.10;99.90;;;;;;5087360;28;20106;-79
2021/12/07 14:28:44;;;;;;;0.10;0.10;;;3.80;99.90;;;;;;5066968;28;20049;-79
2021/12/07 14:31:13;;;;;;;0.10;0.10;;;3.80;99.90;;;;;;5087252;28;20102;-80
2021/12/07 14:33:41;;;;;;;0.10;0.10;;;4.20;99.90;;;;;;5086788;28;20041;-79
2021/12/07 14:36:09;;;;;;;0.10;0.10;;;3.70;99.90;;;;;;5086932;28;20037;-79
2021/12/07 14:38:36;;;;;;;0.10;0.10;;;3.70;99.90;;;;;;5087060;28;20402;-80
2021/12/07 14:41:12;;;;;;;0.10;0.10;;;3.60;99.90;;;;;;5070636;28;20041;-80
2021/12/07 14:43:40;;;;;;;0.20;0.20;;;3.60;99.90;;;;;;5086318;28;20044;-79
2021/12/07 14:46:11;;;;;;;0.10;0.10;;;3.60;99.90;;;;;;5070213;28;20141;-80
2021/12/07 14:48:40;;;;;;;0.10;0.10;;;4.00;99.90;;;;;;5086801;28;20044;-79
2021/12/07 14:51:22;;;;;;;0.10;0.10;;;3.50;99.90;;;;;;5070301;28;20033;-80
2021/12/07 14:53:53;;;;;;;0.10;0.10;;;3.50;99.90;;;;;;5087245;28;20113;-79
2021/12/07 14:56:21;;;;;;;0.10;0.10;;;3.50;99.90;;;;;;5086605;28;20396;-79